Time;durP1;ratioP1;P1;durP2;ratioP2;P2;SDS_P1;SDS_P2;PMS_P1;PMS_P2;Temp;Humidity;BMP_temperature;BMP_pressure;BME280_temperature;BME280_humidity;BME280_pressure;Samples;Min_cycle;Max_cycle;Signal;HPM_P1;HPM_P2
2023/03/01 00:01:28;;;;;;;25.38;11.75;;;;;;;-2.28;100.00;102410.06;5004901;28;20172;-73
2023/03/01 00:03:55;;;;;;;20.52;10.60;;;;;;;-2.27;100.00;102405.69;5005116;28;20033;-75
2023/03/01 00:06:22;;;;;;;23.40;12.40;;;;;;;-2.29;100.00;102405.75;4988910;28;20034;-74
2023/03/01 00:08:48;;;;;;;22.50;10.80;;;;;;;-2.33;100.00;102406.72;5004711;28;20026;-73
2023/03/01 00:11:19;;;;;;;;;;;;;;;-2.34;100.00;102418.94;4988360;28;20116;-72
2023/03/01 00:13:46;;;;;;;23.02;10.15;;;;;;;-2.31;100.00;102420.63;4987033;28;19917;-73
2023/03/01 00:16:15;;;;;;;26.52;10.80;;;;;;;-2.35;100.00;102418.97;5007486;28;20037;-73
2023/03/01 00:18:40;;;;;;;23.25;10.90;;;;;;;-2.40;100.00;102407.78;5005841;28;20068;-75
2023/03/01 00:21:06;;;;;;;20.10;10.88;;;;;;;-2.41;100.00;102406.03;4988474;28;20490;-74
2023/03/01 00:23:34;;;;;;;17.27;9.95;;;;;;;-2.41;100.00;102406.91;4988513;28;20518;-71
2023/03/01 00:26:00;;;;;;;23.40;10.45;;;;;;;-2.45;100.00;102407.03;5004937;28;20034;-73
2023/03/01 00:28:25;;;;;;;24.38;11.40;;;;;;;-2.44;100.00;102406.97;5006370;28;21104;-73
2023/03/01 00:30:50;;;;;;;22.85;12.13;;;;;;;-2.44;100.00;102419.19;4988226;28;20038;-71
2023/03/01 00:33:16;;;;;;;;;;;;;;;-2.42;100.00;102436.56;5006818;28;20033;-72
2023/03/01 00:35:42;;;;;;;19.20;10.27;;;;;;;-2.44;100.00;102427.91;5004891;28;19913;-71
2023/03/01 00:38:08;;;;;;;21.50;10.15;;;;;;;-2.48;100.00;102425.41;4985411;28;20133;-72
2023/03/01 00:40:35;;;;;;;22.48;11.82;;;;;;;-2.47;100.00;102421.91;4987926;28;20041;-73
2023/03/01 00:43:01;;;;;;;20.05;10.18;;;;;;;-2.46;100.00;102428.84;4985872;28;20034;-72
2023/03/01 00:45:27;;;;;;;23.13;12.18;;;;;;;-2.43;100.00;102447.09;4998291;28;20038;-71
2023/03/01 00:47:52;;;;;;;19.92;11.73;;;;;;;-2.45;100.00;102457.59;4971754;28;20141;-72
2023/03/01 00:50:19;;;;;;;21.70;10.75;;;;;;;-2.44;100.00;102464.53;4987927;28;20038;-73
2023/03/01 00:52:44;;;;;;;21.13;10.52;;;;;;;-2.49;100.00;102462.94;5004904;28;20491;-71
2023/03/01 00:55:11;;;;;;;18.35;10.50;;;;;;;-2.51;100.00;102451.63;4986955;28;20045;-73
2023/03/01 00:57:37;;;;;;;20.48;10.77;;;;;;;-2.50;100.00;102450.75;4986258;28;20045;-72
2023/03/01 01:00:05;;;;;;;19.25;9.80;;;;;;;-2.54;100.00;102436.88;4985053;28;20492;-71
2023/03/01 01:02:32;;;;;;;21.20;11.25;;;;;;;-2.53;100.00;102428.13;5002522;28;20030;-73
2023/03/01 01:04:58;;;;;;;19.80;10.18;;;;;;;-2.55;100.00;102422.09;5002597;28;20038;-73
2023/03/01 01:07:23;;;;;;;20.88;10.15;;;;;;;-2.54;100.00;102434.25;4991923;28;20038;-72
2023/03/01 01:09:48;;;;;;;18.92;9.88;;;;;;;-2.59;100.00;102403.00;4987934;28;20021;-73
2023/03/01 01:12:14;;;;;;;22.55;9.93;;;;;;;-2.62;100.00;102395.22;5004321;28;20037;-72
2023/03/01 01:14:39;;;;;;;17.75;10.40;;;;;;;-2.65;100.00;102390.06;4993367;28;20061;-72
2023/03/01 01:17:05;;;;;;;17.13;9.93;;;;;;;-2.63;100.00;102390.88;5005947;28;20030;-72
2023/03/01 01:19:30;;;;;;;24.55;10.13;;;;;;;-2.59;100.00;102391.69;4987629;28;21063;-71
2023/03/01 01:21:56;;;;;;;19.58;9.45;;;;;;;-2.58;100.00;102389.00;4980138;28;20105;-72
2023/03/01 01:24:21;;;;;;;20.40;9.95;;;;;;;-2.59;100.00;102384.69;4985293;28;20053;-74
2023/03/01 01:26:47;;;;;;;21.67;9.85;;;;;;;-2.67;100.00;102359.63;5003606;28;20034;-71
2023/03/01 01:29:12;;;;;;;17.45;10.07;;;;;;;-2.67;100.00;102364.84;5005777;28;20137;-71
2023/03/01 01:31:40;;;;;;;18.60;10.02;;;;;;;-2.68;100.00;102361.38;5005404;28;20085;-71
2023/03/01 01:34:07;;;;;;;23.30;10.85;;;;;;;-2.72;100.00;102362.34;4968715;28;20037;-71
2023/03/01 01:36:34;;;;;;;21.70;10.57;;;;;;;-2.75;100.00;102375.50;4968569;28;20042;-70
2023/03/01 01:39:00;;;;;;;23.85;10.35;;;;;;;-2.79;100.00;102374.72;5005419;28;20630;-70
2023/03/01 01:41:28;;;;;;;21.33;10.93;;;;;;;-2.83;100.00;102380.06;4984623;28;20039;-71
2023/03/01 01:44:10;;;;;;;21.13;12.68;;;;;;;-2.79;100.00;102394.75;5005339;28;20085;-77
2023/03/01 01:46:38;;;;;;;23.50;11.95;;;;;;;-2.80;100.00;102413.97;5005420;28;20048;-74
2023/03/01 01:49:10;;;;;;;24.77;12.30;;;;;;;-2.77;100.00;102425.19;4984869;28;20015;-70
2023/03/01 01:51:40;;;;;;;24.38;11.57;;;;;;;-2.79;100.00;102441.81;5001251;28;20030;-75
2023/03/01 01:54:30;;;;;;;22.27;11.80;;;;;;;-2.82;100.00;102439.28;4984561;28;20034;-71
2023/03/01 01:57:03;;;;;;;21.73;10.88;;;;;;;-2.81;100.00;102454.94;5000848;28;20887;-71
2023/03/01 01:59:31;;;;;;;22.55;12.65;;;;;;;-2.84;100.00;102441.06;4980823;28;20129;-73
2023/03/01 02:02:00;;;;;;;19.40;10.80;;;;;;;-2.83;100.00;102440.19;4996179;28;20036;-71
2023/03/01 02:04:26;;;;;;;23.50;11.15;;;;;;;-2.78;100.00;102439.19;5006863;28;20117;-74
2023/03/01 02:07:17;;;;;;;19.17;11.25;;;;;;;-2.74;100.00;102429.50;4975058;28;20121;-72
2023/03/01 02:09:47;;;;;;;23.98;12.27;;;;;;;-2.72;100.00;102430.31;4988741;28;20515;-74
2023/03/01 02:12:14;;;;;;;29.77;12.65;;;;;;;-2.69;100.00;102435.50;4991100;28;20714;-70
2023/03/01 02:14:39;;;;;;;24.98;12.15;;;;;;;-2.67;100.00;102433.72;4986056;28;20038;-70
2023/03/01 02:17:05;;;;;;;27.08;13.15;;;;;;;-2.67;100.00;102414.53;5007585;28;20863;-71
2023/03/01 02:20:00;;;;;;;26.73;13.65;;;;;;;-2.56;100.00;102423.84;5008954;28;20584;-71
2023/03/01 02:22:32;;;;;;;24.67;13.15;;;;;;;-2.47;100.00;102421.91;5008256;28;20133;-73
2023/03/01 02:25:18;;;;;;;29.42;12.90;;;;;;;-2.36;100.00;102425.97;5007500;28;20084;-72
2023/03/01 02:28:08;;;;;;;32.97;16.77;;;;;;;-2.26;100.00;102426.59;4974716;28;20451;-71
2023/03/01 02:30:34;;;;;;;49.38;17.70;;;;;;;-2.17;100.00;102423.75;5003840;28;20068;-70
2023/03/01 02:33:02;;;;;;;45.08;17.48;;;;;;;-2.03;100.00;102443.47;5008492;28;20058;-71
2023/03/01 02:35:32;;;;;;;59.88;21.58;;;;;;;-2.01;100.00;102437.31;5007015;28;20050;-71
2023/03/01 02:38:00;;;;;;;48.88;19.60;;;;;;;-1.91;100.00;102448.38;5007187;28;20030;-71
2023/03/01 02:40:29;;;;;;;308.48;37.30;;;;;;;-1.80;100.00;102451.59;5006553;28;20114;-74
2023/03/01 02:42:56;;;;;;;55.10;24.35;;;;;;;-1.70;100.00;102463.50;5014823;28;20439;-70
2023/03/01 02:45:23;;;;;;;58.15;23.10;;;;;;;-1.62;100.00;102465.06;4990350;28;20475;-71
2023/03/01 02:47:48;;;;;;;;;;;;;;;-1.54;100.00;102474.44;5008337;28;20037;-71
2023/03/01 02:50:29;;;;;;;147.43;29.95;;;;;;;-1.45;100.00;102477.69;4989835;28;19921;-71
2023/03/01 02:53:01;;;;;;;653.55;67.07;;;;;;;-1.39;100.00;102488.88;4990160;28;20038;-70
2023/03/01 02:55:27;;;;;;;130.85;29.52;;;;;;;-1.36;100.00;102486.19;4977163;28;21026;-71
2023/03/01 02:57:55;;;;;;;170.63;34.63;;;;;;;-1.36;100.00;102491.41;4990115;28;20022;-70
2023/03/01 03:00:26;;;;;;;119.65;31.45;;;;;;;-1.34;100.00;102504.47;4997779;28;20034;-74
2023/03/01 03:02:53;;;;;;;59.63;26.70;;;;;;;-1.32;100.00;102505.28;5005725;28;20078;-74
2023/03/01 03:05:31;;;;;;;62.83;27.42;;;;;;;-1.31;100.00;102509.63;5006486;28;20050;-72
2023/03/01 03:07:58;;;;;;;;;;;;;;;-1.27;100.00;102509.47;5007030;28;20543;-71
2023/03/01 03:10:30;;;;;;;52.83;21.52;;;;;;;-1.31;100.00;102502.63;4987043;28;19914;-71
2023/03/01 03:13:02;;;;;;;98.68;26.65;;;;;;;-1.29;100.00;102506.06;5007415;28;20034;-70
2023/03/01 03:15:28;;;;;;;77.65;21.58;;;;;;;-1.30;100.00;102498.25;5006429;28;20108;-71
2023/03/01 03:17:55;;;;;;;;;;;;;;;-1.32;100.00;102502.66;4993787;28;20041;-73
2023/03/01 03:20:23;;;;;;;94.78;22.60;;;;;;;-1.36;100.00;102504.53;5007297;28;19966;-73
2023/03/01 03:22:50;;;;;;;117.00;23.90;;;;;;;-1.40;100.00;102489.78;5007619;28;20189;-73
2023/03/01 03:25:17;;;;;;;43.90;19.48;;;;;;;-1.44;100.00;102485.53;5007447;28;20030;-74
2023/03/01 03:27:44;;;;;;;44.47;18.85;;;;;;;-1.40;100.00;102487.16;5007068;28;20037;-72
2023/03/01 03:30:13;;;;;;;42.42;19.27;;;;;;;-1.38;100.00;102481.84;4976619;28;20128;-71
2023/03/01 03:32:52;;;;;;;42.03;18.95;;;;;;;-1.36;100.00;102482.69;5003329;28;20053;-72
2023/03/01 03:35:25;;;;;;;88.50;22.08;;;;;;;-1.36;100.00;102477.44;4989704;28;20129;-71
2023/03/01 03:38:37;;;;;;;59.42;18.52;;;;;;;-1.34;100.00;102479.09;5007315;28;20034;-73
2023/03/01 03:40:43;;;;;;;66.53;20.08;;;;;;;-1.35;100.00;102474.78;4982077;28;20042;-71
2023/03/01 03:43:14;;;;;;;64.20;21.25;;;;;;;-1.34;100.00;102479.09;4984816;28;20034;-70
2023/03/01 03:45:41;;;;;;;86.80;23.55;;;;;;;-1.34;100.00;102471.25;4971240;28;20034;-71
2023/03/01 03:48:09;;;;;;;;;;;;;;;-1.31;100.00;102479.03;5007790;28;20025;-72
2023/03/01 03:50:34;;;;;;;74.60;21.80;;;;;;;-1.25;100.00;102485.00;5021598;28;20363;-71
2023/03/01 03:53:02;;;;;;;318.55;35.72;;;;;;;-1.38;100.00;102464.41;5006986;28;20037;-70
2023/03/01 03:55:30;;;;;;;170.23;29.52;;;;;;;-1.34;100.00;102468.63;5006801;28;20029;-71
2023/03/01 03:57:57;;;;;;;360.60;41.38;;;;;;;-1.32;100.00;102469.44;5005171;28;20861;-72
2023/03/01 04:00:23;;;;;;;106.03;25.85;;;;;;;-1.28;100.00;102471.09;5006641;28;20089;-71
2023/03/01 04:02:49;;;;;;;;;;;;;;;-1.26;100.00;102473.66;5007701;28;20034;-71
2023/03/01 04:05:17;;;;;;;400.33;51.53;;;;;;;-1.27;100.00;102478.03;5006727;28;19909;-70
2023/03/01 04:07:43;;;;;;;225.98;33.30;;;;;;;-1.29;100.00;102472.00;5005927;28;20095;-71
2023/03/01 04:10:10;;;;;;;;;;;;;;;-1.29;100.00;102476.34;5007256;28;20034;-70
2023/03/01 04:12:36;;;;;;;549.63;67.03;;;;;;;-1.34;100.00;102473.88;4989016;28;19921;-75
2023/03/01 04:15:12;;;;;;;93.68;24.00;;;;;;;-1.36;100.00;102473.06;5006415;28;20073;-71
2023/03/01 04:17:39;;;;;;;204.48;33.42;;;;;;;-1.39;100.00;102460.03;5006911;28;20046;-72
2023/03/01 04:20:05;;;;;;;273.95;37.38;;;;;;;-1.42;100.00;102468.00;5006640;28;20026;-72
2023/03/01 04:22:31;;;;;;;248.05;34.28;;;;;;;-1.47;100.00;102463.81;5006805;28;20898;-74
2023/03/01 04:24:57;;;;;;;;;;;;;;;-1.35;100.00;102472.16;5007216;28;20437;-71
2023/03/01 04:27:22;;;;;;;91.22;22.77;;;;;;;-1.35;100.00;102477.41;4985691;28;19914;-71
2023/03/01 04:29:47;;;;;;;187.60;30.63;;;;;;;-1.38;100.00;102476.63;4987951;28;20673;-70
2023/03/01 04:32:15;;;;;;;84.13;26.23;;;;;;;-1.40;100.00;102471.44;5005229;28;20292;-71
2023/03/01 04:34:41;;;;;;;140.20;27.95;;;;;;;-1.34;100.00;102471.25;5005533;28;20052;-73
2023/03/01 04:37:06;;;;;;;259.13;35.83;;;;;;;-1.37;100.00;102465.25;5006576;28;20041;-71
2023/03/01 04:39:32;;;;;;;134.48;26.98;;;;;;;-1.33;100.00;102459.03;5006320;28;20038;-71
2023/03/01 04:41:57;;;;;;;76.70;21.80;;;;;;;-1.31;100.00;102459.84;5006054;28;20654;-70
2023/03/01 04:44:23;;;;;;;185.38;29.30;;;;;;;-1.42;100.00;102461.91;4994977;28;20092;-71
2023/03/01 04:46:49;;;;;;;79.35;23.77;;;;;;;-1.32;100.00;102460.72;4987374;28;20038;-72
2023/03/01 04:49:15;;;;;;;67.45;22.48;;;;;;;-1.30;100.00;102459.78;5005245;28;20044;-70
2023/03/01 04:51:41;;;;;;;224.65;35.25;;;;;;;-1.36;100.00;102464.34;5005683;28;20124;-73
2023/03/01 04:54:08;;;;;;;107.22;22.40;;;;;;;-1.46;100.00;102455.88;5006396;28;20108;-73
2023/03/01 04:56:34;;;;;;;206.95;26.88;;;;;;;-1.44;100.00;102464.56;5006009;28;20029;-71
2023/03/01 04:59:00;;;;;;;246.90;29.23;;;;;;;-1.48;100.00;102460.31;5006318;28;20438;-71
2023/03/01 05:01:26;;;;;;;84.03;22.80;;;;;;;-1.47;100.00;102469.91;5005662;28;20064;-73
2023/03/01 05:03:52;;;;;;;386.48;36.63;;;;;;;-1.51;100.00;102469.09;5006088;28;20491;-71
2023/03/01 05:06:19;;;;;;;96.72;22.38;;;;;;;-1.53;100.00;102464.81;5005930;28;20033;-71
2023/03/01 05:08:44;;;;;;;70.18;20.25;;;;;;;-1.58;100.00;102464.09;5004841;28;20030;-70
2023/03/01 05:11:11;;;;;;;128.40;24.30;;;;;;;-1.61;100.00;102467.66;5005021;28;20045;-71
2023/03/01 05:13:38;;;;;;;429.80;47.08;;;;;;;-1.76;100.00;102454.97;4987588;28;20088;-71
2023/03/01 05:16:05;;;;;;;95.57;21.20;;;;;;;-1.79;100.00;102450.66;5004714;28;20034;-71
2023/03/01 05:18:32;;;;;;;61.80;19.27;;;;;;;-1.68;100.00;102453.00;5005099;28;20538;-74
2023/03/01 05:21:07;;;;;;;201.98;30.02;;;;;;;-1.64;100.00;102451.16;5001739;28;20096;-71
2023/03/01 05:23:33;;;;;;;55.00;18.90;;;;;;;-1.68;100.00;102447.78;5005029;28;20036;-72
2023/03/01 05:26:00;;;;;;;221.38;30.85;;;;;;;-1.78;100.00;102439.31;5004790;28;20479;-71
2023/03/01 05:28:28;;;;;;;216.45;26.88;;;;;;;-1.85;100.00;102435.16;5003603;28;20052;-70
2023/03/01 05:30:54;;;;;;;40.65;16.48;;;;;;;-1.73;100.00;102441.81;5004425;28;20391;-71
2023/03/01 05:33:21;;;;;;;35.50;16.15;;;;;;;-1.76;100.00;102445.34;4999882;28;20042;-71
2023/03/01 05:35:48;;;;;;;103.00;23.50;;;;;;;-1.77;100.00;102435.78;4986960;28;20038;-70
2023/03/01 05:38:15;;;;;;;164.55;24.95;;;;;;;-1.66;100.00;102437.22;5005605;28;20535;-72
2023/03/01 05:40:42;;;;;;;332.00;32.88;;;;;;;-1.74;100.00;102430.44;5011470;28;20053;-71
2023/03/01 05:43:07;;;;;;;94.43;21.10;;;;;;;-1.81;100.00;102430.66;5011602;28;20026;-71
2023/03/01 05:45:35;;;;;;;179.80;22.50;;;;;;;-1.80;100.00;102430.63;5011182;28;20041;-71
2023/03/01 05:48:01;;;;;;;309.75;34.58;;;;;;;-1.79;100.00;102421.88;5011664;28;20078;-73
2023/03/01 05:50:34;;;;;;;186.27;28.20;;;;;;;-1.88;100.00;102424.72;5010938;28;20482;-71
2023/03/01 05:53:07;;;;;;;69.78;19.77;;;;;;;-1.88;100.00;102429.97;5008686;28;20033;-71
2023/03/01 05:55:33;;;;;;;108.25;22.52;;;;;;;-1.90;100.00;102429.16;4977631;28;20065;-71
2023/03/01 05:58:00;;;;;;;210.98;32.85;;;;;;;-1.89;100.00;102435.25;5011026;28;20065;-73
2023/03/01 06:00:25;;;;;;;139.57;22.40;;;;;;;-1.76;100.00;102432.25;5009689;28;20490;-74
2023/03/01 06:02:54;;;;;;;54.45;20.45;;;;;;;-1.74;100.00;102437.44;5010697;28;20033;-77
2023/03/01 06:05:19;;;;;;;97.50;22.02;;;;;;;-1.76;100.00;102432.25;4991041;28;20050;-73
2023/03/01 06:07:44;;;;;;;64.55;20.52;;;;;;;-1.73;100.00;102445.28;5010487;28;20037;-75
2023/03/01 06:10:11;;;;;;;57.08;19.65;;;;;;;-1.76;100.00;102440.09;5011932;28;20128;-73
2023/03/01 06:12:38;;;;;;;89.22;20.73;;;;;;;-1.68;100.00;102434.69;5011768;28;20037;-75
2023/03/01 06:15:04;;;;;;;224.93;31.08;;;;;;;-1.77;100.00;102435.78;5011412;28;20034;-73
2023/03/01 06:17:31;;;;;;;66.85;19.20;;;;;;;-1.76;100.00;102432.25;5011711;28;20040;-74
2023/03/01 06:19:57;;;;;;;49.75;18.13;;;;;;;-1.71;100.00;102435.63;5010609;28;20394;-73
2023/03/01 06:22:23;;;;;;;262.10;35.15;;;;;;;-1.78;100.00;102423.59;5007856;28;20018;-74
2023/03/01 06:24:48;;;;;;;443.88;43.55;;;;;;;-2.00;100.00;102411.97;4993164;28;20096;-75
2023/03/01 06:27:14;;;;;;;261.73;31.85;;;;;;;-1.92;100.00;102425.69;5009968;28;20041;-73
2023/03/01 06:29:39;;;;;;;94.93;22.38;;;;;;;-1.87;100.00;102417.72;5008441;28;20108;-74
2023/03/01 06:32:05;;;;;;;109.22;21.92;;;;;;;-1.94;100.00;102417.06;5010250;28;20041;-73
2023/03/01 06:34:30;;;;;;;50.42;19.08;;;;;;;-1.86;100.00;102422.09;5008324;28;20030;-74
2023/03/01 06:36:56;;;;;;;50.10;16.25;;;;;;;-1.73;100.00;102424.31;4996762;28;20175;-76
2023/03/01 06:39:21;;;;;;;70.43;20.02;;;;;;;-1.66;100.00;102427.63;5011347;28;20037;-75
2023/03/01 06:41:47;;;;;;;138.40;22.00;;;;;;;-1.78;100.00;102418.38;5008766;28;20034;-71
2023/03/01 06:44:12;;;;;;;416.13;37.95;;;;;;;-1.91;100.00;102423.06;5011425;28;20030;-74
2023/03/01 06:46:39;;;;;;;277.92;33.30;;;;;;;-1.93;100.00;102409.16;4998463;28;20030;-74
2023/03/01 06:49:07;;;;;;;41.45;14.77;;;;;;;-1.82;100.00;102424.56;4991075;28;20041;-73
2023/03/01 06:51:32;;;;;;;65.75;17.52;;;;;;;-1.76;100.00;102418.31;4994957;28;20124;-73
2023/03/01 06:53:58;;;;;;;294.48;35.17;;;;;;;-1.72;100.00;102412.94;4987412;28;20117;-73
2023/03/01 06:56:23;;;;;;;76.15;16.42;;;;;;;-1.70;100.00;102420.75;5003458;28;20034;-75
2023/03/01 06:58:49;;;;;;;142.77;19.40;;;;;;;-1.58;100.00;102422.19;4982627;28;20112;-71
2023/03/01 07:01:14;;;;;;;96.13;18.20;;;;;;;-1.56;100.00;102402.03;5023068;23;20164;-89
2023/03/01 07:03:39;;;;;;;61.33;16.00;;;;;;;-1.59;100.00;102396.88;4998596;28;20062;-87
2023/03/01 07:06:05;;;;;;;77.65;14.50;;;;;;;-1.52;100.00;102396.66;5019676;28;20455;-85
2023/03/01 07:08:30;;;;;;;167.82;23.98;;;;;;;-1.60;100.00;102387.31;4987173;28;20049;-87
2023/03/01 07:10:58;;;;;;;27.80;12.90;;;;;;;-1.50;100.00;102392.25;5011933;28;20033;-86
2023/03/01 07:13:24;;;;;;;37.83;13.98;;;;;;;-1.51;100.00;102380.03;5005259;28;20073;-85
2023/03/01 07:15:49;;;;;;;86.60;14.00;;;;;;;-1.42;100.00;102385.94;5003035;28;20046;-86
2023/03/01 07:18:14;;;;;;;67.55;16.27;;;;;;;-1.27;100.00;102391.53;5002522;28;20030;-86
2023/03/01 07:20:40;;;;;;;117.80;18.92;;;;;;;-1.33;100.00;102380.41;5000204;28;20453;-86
2023/03/01 07:23:06;;;;;;;286.23;27.93;;;;;;;-1.44;100.00;102369.38;4997866;28;20079;-86
2023/03/01 07:25:32;;;;;;;60.05;14.95;;;;;;;-1.35;100.00;102375.22;4984351;28;20761;-86
2023/03/01 07:27:57;;;;;;;82.55;15.00;;;;;;;-1.27;100.00;102378.44;5018149;28;20037;-86
2023/03/01 07:30:25;;;;;;;283.98;31.23;;;;;;;-1.33;100.00;102372.56;5033300;28;20052;-86
2023/03/01 07:32:51;;;;;;;36.35;14.50;;;;;;;-1.23;100.00;102378.38;5008447;28;20049;-86
2023/03/01 07:35:17;;;;;;;38.88;13.45;;;;;;;-1.31;100.00;102368.97;5010672;28;20033;-86
2023/03/01 07:37:43;;;;;;;221.70;27.58;;;;;;;-1.35;100.00;102369.97;4980726;28;20038;-85
2023/03/01 07:40:09;;;;;;;114.88;18.25;;;;;;;-1.45;100.00;102368.53;5014075;28;20092;-85
2023/03/01 07:42:35;;;;;;;279.40;27.05;;;;;;;-1.46;100.00;102371.19;5005929;28;20137;-85
2023/03/01 07:45:00;;;;;;;350.85;31.80;;;;;;;-1.37;100.00;102382.25;5008439;28;20065;-86
2023/03/01 07:47:25;;;;;;;68.57;13.82;;;;;;;-1.25;100.00;102382.78;5014948;28;20030;-86
2023/03/01 07:49:51;;;;;;;28.23;12.30;;;;;;;-1.28;100.00;102389.00;4997997;28;20045;-86
2023/03/01 07:52:16;;;;;;;82.35;13.73;;;;;;;-1.29;100.00;102388.13;5017514;28;20462;-86
2023/03/01 07:54:45;;;;;;;145.98;18.45;;;;;;;-1.50;100.00;102376.53;5019929;28;20479;-87
2023/03/01 07:57:10;;;;;;;125.63;14.75;;;;;;;-1.44;100.00;102374.63;4997038;28;20986;-85
2023/03/01 07:59:36;;;;;;;99.55;15.60;;;;;;;-1.27;100.00;102388.94;4997843;28;20057;-87
2023/03/01 08:02:01;;;;;;;32.95;12.55;;;;;;;-1.22;100.00;102390.56;4996213;28;20041;-86
2023/03/01 08:04:27;;;;;;;59.80;13.00;;;;;;;-1.15;100.00;102384.22;5017000;28;20095;-85
2023/03/01 08:06:53;;;;;;;31.85;12.93;;;;;;;-0.95;100.00;102386.25;4996954;28;20034;-86
2023/03/01 08:09:18;;;;;;;68.63;14.90;;;;;;;-0.87;100.00;102386.84;5011973;28;20017;-86
2023/03/01 08:11:44;;;;;;;32.13;11.90;;;;;;;-0.72;100.00;102391.59;5003298;28;20038;-86
2023/03/01 08:14:10;;;;;;;92.80;16.08;;;;;;;-0.88;100.00;102380.75;4987796;28;20037;-86
2023/03/01 08:16:35;;;;;;;;;;;;;;;-0.87;100.00;102377.22;4984119;28;20065;-87
2023/03/01 08:19:10;;;;;;;60.38;12.45;;;;;;;-0.91;100.00;102364.28;4981451;28;19921;-87
2023/03/01 08:21:36;;;;;;;36.78;11.85;;;;;;;-0.79;100.00;102368.25;5004831;28;20099;-87
2023/03/01 08:24:02;;;;;;;;;;;;;;;-0.71;100.00;102367.09;4998284;28;20394;-86
2023/03/01 08:26:27;;;;;;;116.18;16.38;;;;;;;-0.75;100.00;102349.75;4997769;28;19967;-86
2023/03/01 08:28:53;;;;;;;26.05;11.57;;;;;;;-0.60;100.00;102348.38;4984419;28;20404;-86
2023/03/01 08:31:31;;;;;;;67.60;12.55;;;;;;;-0.86;100.00;102336.13;5027801;28;20561;-86
2023/03/01 08:33:59;;;;;;;33.40;11.55;;;;;;;-1.01;100.00;102326.97;4997577;28;20088;-86
2023/03/01 08:36:27;;;;;;;38.28;11.43;;;;;;;-0.85;100.00;102343.94;4996781;28;20274;-85
2023/03/01 08:38:53;;;;;;;38.72;10.85;;;;;;;-0.91;100.00;102338.91;5001644;28;20090;-85
2023/03/01 08:41:18;;;;;;;26.75;11.02;;;;;;;-0.71;100.00;102334.75;4999855;28;20038;-86
2023/03/01 08:43:44;;;;;;;19.77;10.10;;;;;;;-0.65;100.00;102342.44;4994895;28;20053;-86
2023/03/01 08:46:10;;;;;;;29.65;10.15;;;;;;;-0.71;100.00;102332.13;5008465;28;20049;-87
2023/03/01 08:48:35;;;;;;;;;;;;;;;-0.66;100.00;102338.97;4991323;28;20406;-85
2023/03/01 08:51:18;;;;;;;58.80;11.63;;;;;;;-0.54;100.00;102340.31;5007190;28;19920;-85
2023/03/01 08:53:44;;;;;;;21.10;10.02;;;;;;;-0.37;100.00;102350.22;4985621;28;20184;-85
2023/03/01 08:56:10;;;;;;;20.92;9.23;;;;;;;-0.20;100.00;102356.66;4994949;28;20134;-86
2023/03/01 08:58:36;;;;;;;19.20;10.52;;;;;;;-0.10;100.00;102348.38;4999092;28;20101;-85
2023/03/01 09:01:08;;;;;;;24.63;11.07;;;;;;;-0.11;100.00;102349.31;5009090;28;20103;-86
2023/03/01 09:03:33;;;;;;;19.55;10.38;;;;;;;-0.11;100.00;102338.81;5014526;28;20095;-85
2023/03/01 09:06:02;;;;;;;21.23;10.13;;;;;;;-0.32;100.00;102324.69;5022057;28;20462;-84
2023/03/01 09:08:28;;;;;;;36.10;10.07;;;;;;;-0.39;100.00;102317.94;4994524;28;20045;-85
2023/03/01 09:10:54;;;;;;;66.57;10.65;;;;;;;-0.39;100.00;102314.47;4990517;28;20061;-84
2023/03/01 09:13:19;;;;;;;46.47;10.30;;;;;;;-0.29;100.00;102311.44;5006420;28;20076;-86
2023/03/01 09:15:44;;;;;;;34.35;9.90;;;;;;;-0.12;100.00;102323.94;4994803;28;20029;-85
2023/03/01 09:18:10;;;;;;;17.70;8.65;;;;;;;-0.03;100.00;102309.66;4999266;28;20038;-85
2023/03/01 09:20:35;;;;;;;18.40;9.03;;;;;;;0.01;100.00;102307.78;4977541;28;20096;-85
2023/03/01 09:23:01;;;;;;;40.37;10.80;;;;;;;0.05;100.00;102309.34;4994591;28;20281;-85
2023/03/01 09:25:26;;;;;;;18.42;9.57;;;;;;;0.01;100.00;102302.53;4993604;28;20549;-84
2023/03/01 09:27:53;;;;;;;23.45;9.25;;;;;;;-0.07;100.00;102287.03;4993923;28;20057;-84
2023/03/01 09:30:19;;;;;;;78.85;12.40;;;;;;;0.15;100.00;102300.25;5005688;28;20033;-86
2023/03/01 09:32:44;;;;;;;30.08;9.70;;;;;;;-0.05;100.00;102278.22;4977497;28;20414;-86
2023/03/01 09:35:11;;;;;;;20.92;9.68;;;;;;;0.10;100.00;102302.19;5005484;28;20049;-85
2023/03/01 09:37:44;;;;;;;33.00;10.00;;;;;;;0.14;100.00;102303.75;5010934;28;20699;-86
2023/03/01 09:40:17;;;;;;;23.33;10.20;;;;;;;0.29;100.00;102303.19;4994185;28;20033;-85
2023/03/01 09:42:54;;;;;;;21.92;9.65;;;;;;;0.34;100.00;102300.41;4993435;28;20694;-85
2023/03/01 09:45:35;;;;;;;19.92;9.85;;;;;;;0.51;100.00;102307.63;4977797;28;20042;-85
2023/03/01 09:48:03;;;;;;;19.38;9.00;;;;;;;0.41;100.00;102291.38;5003176;28;20030;-85
2023/03/01 09:50:35;;;;;;;27.58;10.98;;;;;;;0.37;100.00;102289.78;5001050;28;20066;-85
2023/03/01 09:53:05;;;;;;;19.58;9.63;;;;;;;0.54;100.00;102311.00;4994276;28;20033;-85
2023/03/01 09:55:42;;;;;;;24.08;9.57;;;;;;;0.40;100.00;102308.91;5009287;28;20048;-86
2023/03/01 09:58:45;;;;;;;23.17;10.05;;;;;;;0.43;100.00;102315.81;4997257;28;20047;-84
2023/03/01 10:01:35;;;;;;;19.35;10.25;;;;;;;0.73;100.00;102329.56;5009706;23;20072;-78
2023/03/01 10:04:26;;;;;;;27.90;9.80;;;;;;;0.80;100.00;102315.25;4996001;28;20032;-76
2023/03/01 10:07:04;;;;;;;16.77;9.35;;;;;;;0.71;100.00;102289.31;4992916;28;20038;-77
2023/03/01 10:09:33;;;;;;;17.77;9.35;;;;;;;0.58;100.00;102272.31;4998712;28;20226;-79
2023/03/01 10:12:02;;;;;;;19.30;9.40;;;;;;;0.58;100.00;102267.06;4995321;28;20026;-75
2023/03/01 10:14:32;;;;;;;22.25;10.90;;;;;;;0.80;100.00;102293.34;4995407;28;20038;-78
2023/03/01 10:17:02;;;;;;;19.75;10.02;;;;;;;0.46;100.00;102254.41;5002649;28;20037;-76
2023/03/01 10:19:39;;;;;;;25.08;10.68;;;;;;;0.84;100.00;102287.03;4989524;28;20508;-76
2023/03/01 10:22:29;;;;;;;23.70;11.20;;;;;;;0.83;100.00;102278.28;4985937;28;20034;-78
2023/03/01 10:24:58;;;;;;;26.08;10.35;;;;;;;1.00;100.00;102282.00;4985362;28;20046;-78
2023/03/01 10:27:24;;;;;;;23.55;10.93;;;;;;;1.03;100.00;102274.88;5010551;28;20506;-76
2023/03/01 10:30:12;;;;;;;19.85;10.80;;;;;;;1.29;100.00;102293.09;4976557;28;20042;-76
2023/03/01 10:32:39;;;;;;;31.77;12.10;;;;;;;0.79;100.00;102245.16;5010123;28;20038;-77
2023/03/01 10:35:24;;;;;;;18.58;10.82;;;;;;;0.87;100.00;102255.38;4992698;28;20042;-79
2023/03/01 10:38:04;;;;;;;13.45;7.82;;;;;;;1.16;100.00;102284.88;5010043;28;20026;-76
2023/03/01 10:40:30;;;;;;;18.30;9.88;;;;;;;1.18;100.00;102278.63;4992728;28;20118;-78
2023/03/01 10:43:00;;;;;;;;;;;;;;;1.49;100.00;102298.38;4989955;28;20025;-77
2023/03/01 10:45:29;;;;;;;30.65;11.02;;;;;;;0.93;100.00;102231.44;5008526;28;19964;-76
2023/03/01 10:48:14;;;;;;;15.38;8.40;;;;;;;1.15;100.00;102243.72;4992494;28;20036;-78
2023/03/01 10:50:49;;;;;;;31.27;8.75;;;;;;;1.13;100.00;102227.13;4992358;28;20038;-77
2023/03/01 10:53:37;;;;;;;16.73;7.80;;;;;;;1.04;100.00;102207.34;4975874;28;20038;-76
2023/03/01 10:56:06;;;;;;;19.80;9.15;;;;;;;1.32;100.00;102235.94;4991421;28;20037;-76
2023/03/01 10:58:33;;;;;;;16.60;8.20;;;;;;;1.27;100.00;102222.97;4992357;28;20021;-76
2023/03/01 11:01:01;;;;;;;17.60;9.02;;;;;;;1.00;100.00;102200.47;5009572;28;20557;-77
2023/03/01 11:03:33;;;;;;;25.55;10.45;;;;;;;1.26;100.00;102225.66;4990137;28;20034;-77
2023/03/01 11:06:05;;;;;;;16.40;7.93;;;;;;;1.47;100.00;102245.81;4991893;28;20660;-77
2023/03/01 11:08:49;;;;;;;18.35;9.27;;;;;;;1.34;100.00;102226.22;5009296;28;20041;-76
2023/03/01 11:11:44;;;;;;;26.77;9.50;;;;;;;0.96;100.00;102199.78;5007817;28;20048;-76
2023/03/01 11:14:18;;;;;;;17.08;8.80;;;;;;;1.20;100.00;102236.47;4972295;28;20050;-77